Time,TemperatureF,DewpointF,PressureIn,WindDirection,WindDirectionDegrees,WindSpeedMPH,WindSpeedGustMPH,Humidity,HourlyPrecipIn,Conditions,Clouds,dailyrainin,SoftwareType,DateUTC
2013-02-21 00:08:00,35.4,29.2,30.00,SW,225,0.0,-999.0,78,-99.99,,,0.00,Acu-Link.com,2013-02-21 08:08:00,
2013-02-21 00:23:00,35.4,29.5,30.01,SW,225,1.7,-999.0,79,-99.99,,,0.00,Acu-Link.com,2013-02-21 08:23:00,
2013-02-21 00:38:00,35.4,29.9,30.01,SW,225,0.0,-999.0,80,-99.99,,,0.00,Acu-Link.com,2013-02-21 08:38:00,
2013-02-21 00:54:00,34.7,29.5,30.01,SW,225,0.0,-999.0,81,-99.99,,,0.00,Acu-Link.com,2013-02-21 08:54:00,
2013-02-21 01:21:00,34.2,29.3,30.02,SW,225,0.0,-999.0,82,-99.99,,,0.00,Acu-Link.com,2013-02-21 09:21:00,
2013-02-21 01:36:00,33.1,28.2,30.01,SW,225,1.7,-999.0,82,-99.99,,,0.00,Acu-Link.com,2013-02-21 09:36:00,
2013-02-21 01:51:00,34.0,29.4,30.00,SW,225,0.0,-999.0,83,-99.99,,,0.00,Acu-Link.com,2013-02-21 09:51:00,
2013-02-21 02:07:00,34.3,29.7,30.01,SW,225,1.7,-999.0,83,-99.99,,,0.00,Acu-Link.com,2013-02-21 10:07:00,
2013-02-21 02:22:00,35.1,29.9,30.00,SW,225,1.7,-999.0,81,-99.99,,,0.00,Acu-Link.com,2013-02-21 10:22:00,
2013-02-21 02:37:00,35.4,29.9,30.00,SW,225,1.1,-999.0,80,-99.99,,,0.00,Acu-Link.com,2013-02-21 10:37:00,
2013-02-21 02:52:00,35.2,29.7,30.00,SW,225,2.7,-999.0,80,-99.99,,,0.00,Acu-Link.com,2013-02-21 10:52:00,
2013-02-21 03:07:00,35.1,29.3,30.00,SW,225,2.2,-999.0,79,-99.99,,,0.00,Acu-Link.com,2013-02-21 11:07:00,
2013-02-21 03:23:00,34.9,29.1,30.01,SW,225,2.2,-999.0,79,-99.99,,,0.00,Acu-Link.com,2013-02-21 11:23:00,
2013-02-21 03:38:00,34.7,28.9,30.01,SW,225,0.0,-999.0,79,-99.99,,,0.00,Acu-Link.com,2013-02-21 11:38:00,
2013-02-21 03:53:00,33.8,28.3,30.01,SW,225,1.1,-999.0,80,-99.99,,,0.00,Acu-Link.com,2013-02-21 11:53:00,
2013-02-21 04:08:00,33.4,27.9,30.01,SW,225,2.2,-999.0,80,-99.99,,,0.00,Acu-Link.com,2013-02-21 12:08:00,
2013-02-21 04:23:00,33.6,28.4,30.01,SW,225,0.0,-999.0,81,-99.99,,,0.00,Acu-Link.com,2013-02-21 12:23:00,
2013-02-21 04:39:00,33.6,28.4,30.01,SW,225,1.1,-999.0,81,-99.99,,,0.00,Acu-Link.com,2013-02-21 12:39:00,
2013-02-21 04:54:00,33.4,28.2,30.01,SW,225,1.7,-999.0,81,-99.99,,,0.00,Acu-Link.com,2013-02-21 12:54:00,
2013-02-21 05:09:00,33.1,27.9,30.02,SW,225,2.2,-999.0,81,-99.99,,,0.00,Acu-Link.com,2013-02-21 13:09:00,
2013-02-21 05:24:00,33.6,28.7,30.02,SW,225,0.0,-999.0,82,-99.99,,,0.00,Acu-Link.com,2013-02-21 13:24:00,
2013-02-21 05:39:00,33.3,28.4,30.02,SW,225,0.0,-999.0,82,-99.99,,,0.00,Acu-Link.com,2013-02-21 13:39:00,
2013-02-21 05:55:00,32.9,28.0,30.02,SW,225,0.0,-999.0,82,-99.99,,,0.00,Acu-Link.com,2013-02-21 13:55:00,
2013-02-21 06:10:00,32.0,27.1,30.02,SW,225,1.7,-999.0,82,-99.99,,,0.00,Acu-Link.com,2013-02-21 14:10:00,
2013-02-21 06:25:00,31.8,27.5,30.03,SW,225,2.2,-999.0,84,-99.99,,,0.00,Acu-Link.com,2013-02-21 14:25:00,
2013-02-21 06:40:00,32.0,28.0,30.03,SW,225,0.0,-999.0,85,-99.99,,,0.00,Acu-Link.com,2013-02-21 14:40:00,
2013-02-21 06:56:00,32.0,28.0,30.03,SW,225,1.7,-999.0,85,-99.99,,,0.00,Acu-Link.com,2013-02-21 14:56:00,
2013-02-21 07:11:00,33.1,29.4,30.04,SW,225,0.0,-999.0,86,-99.99,,,0.00,Acu-Link.com,2013-02-21 15:11:00,
2013-02-21 07:26:00,35.1,31.1,30.05,SW,225,0.0,-999.0,85,-99.99,,,0.00,Acu-Link.com,2013-02-21 15:26:00,
2013-02-21 07:41:00,36.7,32.0,30.05,SW,225,0.0,-999.0,83,-99.99,,,0.00,Acu-Link.com,2013-02-21 15:41:00,
2013-02-21 07:56:00,39.7,34.4,30.05,SW,225,0.0,-999.0,81,-99.99,,,0.00,Acu-Link.com,2013-02-21 15:56:00,
2013-02-21 08:11:00,46.2,39.1,30.06,SW,225,0.0,-999.0,76,-99.99,,,0.00,Acu-Link.com,2013-02-21 16:11:00,
2013-02-21 08:26:00,50.5,41.1,30.06,SW,225,0.0,-999.0,70,-99.99,,,0.00,Acu-Link.com,2013-02-21 16:26:00,
2013-02-21 08:42:00,50.4,40.2,30.06,SW,225,0.0,-999.0,68,-99.99,,,0.00,Acu-Link.com,2013-02-21 16:42:00,
2013-02-21 08:57:00,52.3,41.3,30.07,SW,225,3.2,-999.0,66,-99.99,,,0.00,Acu-Link.com,2013-02-21 16:57:00,
2013-02-21 09:12:00,54.5,43.0,30.07,SW,225,2.7,-999.0,65,-99.99,,,0.00,Acu-Link.com,2013-02-21 17:12:00,
2013-02-21 09:27:00,55.8,44.2,30.07,SW,225,2.2,-999.0,65,-99.99,,,0.00,Acu-Link.com,2013-02-21 17:27:00,
2013-02-21 09:43:00,56.3,44.3,30.06,NNE,22,1.7,-999.0,64,-99.99,,,0.00,Acu-Link.com,2013-02-21 17:43:00,
2013-02-21 09:58:00,57.4,44.1,30.06,SSE,157,4.2,-999.0,61,-99.99,,,0.00,Acu-Link.com,2013-02-21 17:58:00,
2013-02-21 10:13:00,57.7,43.9,30.05,SE,135,6.8,-999.0,60,-99.99,,,0.00,Acu-Link.com,2013-02-21 18:13:00,
2013-02-21 10:28:00,58.5,43.8,30.04,NNE,22,2.2,-999.0,58,-99.99,,,0.00,Acu-Link.com,2013-02-21 18:28:00,
2013-02-21 10:43:00,61.2,45.4,30.04,North,0,2.2,-999.0,56,-99.99,,,0.00,Acu-Link.com,2013-02-21 18:43:00,
2013-02-21 10:59:00,59.5,42.8,30.03,SSW,202,2.7,-999.0,54,-99.99,,,0.00,Acu-Link.com,2013-02-21 18:59:00,
2013-02-21 11:14:00,59.2,42.1,30.03,South,180,4.2,-999.0,53,-99.99,,,0.00,Acu-Link.com,2013-02-21 19:14:00,
2013-02-21 11:29:00,60.4,42.7,30.02,SW,225,3.7,-999.0,52,-99.99,,,0.00,Acu-Link.com,2013-02-21 19:29:00,
2013-02-21 11:44:00,62.2,43.8,30.02,SW,225,1.7,-999.0,51,-99.99,,,0.00,Acu-Link.com,2013-02-21 19:44:00,
2013-02-21 12:00:00,61.7,42.9,30.01,SW,225,5.8,-999.0,50,-99.99,,,0.00,Acu-Link.com,2013-02-21 20:00:00,
2013-02-21 12:15:00,61.3,42.0,30.01,SSW,202,3.7,-999.0,49,-99.99,,,0.00,Acu-Link.com,2013-02-21 20:15:00,
2013-02-21 12:30:00,63.3,43.3,30.00,South,180,5.3,-999.0,48,-99.99,,,0.00,Acu-Link.com,2013-02-21 20:30:00,
2013-02-21 12:45:00,62.2,42.3,30.00,SSW,202,7.3,-999.0,48,-99.99,,,0.00,Acu-Link.com,2013-02-21 20:45:00,
2013-02-21 13:01:00,60.8,42.0,29.99,SW,225,8.3,-999.0,50,-99.99,,,0.00,Acu-Link.com,2013-02-21 21:01:00,
2013-02-21 13:16:00,59.9,42.2,29.99,SW,225,6.3,-999.0,52,-99.99,,,0.00,Acu-Link.com,2013-02-21 21:16:00,
2013-02-21 13:31:00,60.3,43.6,29.99,SW,225,8.3,-999.0,54,-99.99,,,0.00,Acu-Link.com,2013-02-21 21:31:00,
2013-02-21 13:46:00,60.3,43.6,29.99,SSW,202,8.3,-999.0,54,-99.99,,,0.00,Acu-Link.com,2013-02-21 21:46:00,
2013-02-21 14:01:00,59.9,43.2,29.99,SSE,157,7.3,-999.0,54,-99.99,,,0.00,Acu-Link.com,2013-02-21 22:01:00,
2013-02-21 14:17:00,60.8,44.0,29.98,North,0,3.7,-999.0,54,-99.99,,,0.00,Acu-Link.com,2013-02-21 22:17:00,
2013-02-21 14:32:00,59.2,42.6,29.99,South,180,11.4,-999.0,54,-99.99,,,0.00,Acu-Link.com,2013-02-21 22:32:00,
2013-02-21 14:47:00,58.8,42.7,29.99,SSW,202,6.3,-999.0,55,-99.99,,,0.00,Acu-Link.com,2013-02-21 22:47:00,
2013-02-21 15:02:00,58.3,42.2,29.98,SSW,202,6.8,-999.0,55,-99.99,,,0.00,Acu-Link.com,2013-02-21 23:02:00,
2013-02-21 15:17:00,57.9,41.8,29.98,SSE,157,6.8,-999.0,55,-99.99,,,0.00,Acu-Link.com,2013-02-21 23:17:00,
2013-02-21 15:33:00,57.6,41.6,29.99,SSE,157,5.8,-999.0,55,-99.99,,,0.00,Acu-Link.com,2013-02-21 23:33:00,
2013-02-21 15:48:00,57.6,41.6,29.99,SSW,202,3.2,-999.0,55,-99.99,,,0.00,Acu-Link.com,2013-02-21 23:48:00,
2013-02-21 16:03:00,57.4,40.9,29.97,SSW,202,5.8,-999.0,54,-99.99,,,0.00,Acu-Link.com,2013-02-22 00:03:00,
2013-02-21 16:18:00,57.7,41.2,29.97,South,180,3.7,-999.0,54,-99.99,,,0.00,Acu-Link.com,2013-02-22 00:18:00,
2013-02-21 16:34:00,57.0,40.5,29.98,SW,225,3.7,-999.0,54,-99.99,,,0.00,Acu-Link.com,2013-02-22 00:34:00,
2013-02-21 16:49:00,55.9,39.5,29.98,SSW,202,5.8,-999.0,54,-99.99,,,0.00,Acu-Link.com,2013-02-22 00:49:00,
2013-02-21 17:04:00,54.7,38.4,30.00,South,180,5.3,-999.0,54,-99.99,,,0.00,Acu-Link.com,2013-02-22 01:04:00,
2013-02-21 17:19:00,53.8,37.5,30.01,South,180,2.7,-999.0,54,-99.99,,,0.00,Acu-Link.com,2013-02-22 01:19:00,
2013-02-21 17:34:00,53.1,37.4,30.00,NW,315,1.7,-999.0,55,-99.99,,,0.00,Acu-Link.com,2013-02-22 01:34:00,
2013-02-21 17:50:00,52.0,37.2,30.00,NW,315,0.0,-999.0,57,-99.99,,,0.00,Acu-Link.com,2013-02-22 01:50:00,
2013-02-21 18:05:00,50.5,36.3,30.01,NW,315,0.0,-999.0,58,-99.99,,,0.00,Acu-Link.com,2013-02-22 02:05:00,
2013-02-21 18:20:00,49.1,36.2,30.02,NW,315,1.7,-999.0,61,-99.99,,,0.00,Acu-Link.com,2013-02-22 02:20:00,
2013-02-21 18:35:00,47.7,36.1,30.02,NW,315,0.0,-999.0,64,-99.99,,,0.00,Acu-Link.com,2013-02-22 02:35:00,
2013-02-21 18:50:00,47.1,36.3,30.03,NW,315,0.0,-999.0,66,-99.99,,,0.00,Acu-Link.com,2013-02-22 02:50:00,
2013-02-21 19:06:00,45.0,35.1,30.03,NW,315,1.7,-999.0,68,-99.99,,,0.00,Acu-Link.com,2013-02-22 03:06:00,
2013-02-21 19:21:00,45.0,35.8,30.04,NW,315,0.0,-999.0,70,-99.99,,,0.00,Acu-Link.com,2013-02-22 03:21:00,
2013-02-21 19:36:00,43.7,35.3,30.06,NW,315,0.0,-999.0,72,-99.99,,,0.00,Acu-Link.com,2013-02-22 03:36:00,
2013-02-21 19:51:00,43.2,35.5,30.06,NW,315,0.0,-999.0,74,-99.99,,,0.00,Acu-Link.com,2013-02-22 03:51:00,
2013-02-21 20:06:00,42.1,34.8,30.06,NW,315,0.0,-999.0,75,-99.99,,,0.00,Acu-Link.com,2013-02-22 04:06:00,
2013-02-21 20:22:00,42.1,35.1,30.09,NW,315,1.1,-999.0,76,-99.99,,,0.00,Acu-Link.com,2013-02-22 04:22:00,
2013-02-21 20:37:00,41.7,35.0,30.08,NW,315,0.0,-999.0,77,-99.99,,,0.00,Acu-Link.com,2013-02-22 04:37:00,
2013-02-21 20:52:00,41.2,34.5,30.08,NW,315,1.7,-999.0,77,-99.99,,,0.00,Acu-Link.com,2013-02-22 04:52:00,
2013-02-21 21:07:00,41.2,34.9,30.06,NW,315,1.1,-999.0,78,-99.99,,,0.00,Acu-Link.com,2013-02-22 05:07:00,
2013-02-21 21:22:00,41.0,34.7,30.06,NW,315,0.0,-999.0,78,-99.99,,,0.00,Acu-Link.com,2013-02-22 05:22:00,
2013-02-21 21:38:00,41.0,34.7,30.07,NW,315,2.2,-999.0,78,-99.99,,,0.00,Acu-Link.com,2013-02-22 05:38:00,
2013-02-21 21:53:00,40.3,34.3,30.08,NW,315,1.7,-999.0,79,-99.99,,,0.00,Acu-Link.com,2013-02-22 05:53:00,
2013-02-21 22:08:00,40.1,34.4,30.09,NW,315,0.0,-999.0,80,-99.99,,,0.00,Acu-Link.com,2013-02-22 06:08:00,
2013-02-21 22:23:00,39.9,34.2,30.09,NW,315,0.0,-999.0,80,-99.99,,,0.00,Acu-Link.com,2013-02-22 06:23:00,
2013-02-21 22:39:00,39.6,33.9,30.10,NW,315,0.0,-999.0,80,-99.99,,,0.00,Acu-Link.com,2013-02-22 06:39:00,
2013-02-21 22:54:00,38.8,33.2,30.11,NW,315,0.0,-999.0,80,-99.99,,,0.00,Acu-Link.com,2013-02-22 06:54:00,
2013-02-21 23:09:00,38.5,33.2,30.11,NW,315,0.0,-999.0,81,-99.99,,,0.00,Acu-Link.com,2013-02-22 07:09:00,
2013-02-21 23:24:00,38.8,33.5,30.10,NW,315,0.0,-999.0,81,-99.99,,,0.00,Acu-Link.com,2013-02-22 07:24:00,
2013-02-21 23:39:00,38.7,33.4,30.11,NW,315,1.7,-999.0,81,-99.99,,,0.00,Acu-Link.com,2013-02-22 07:39:00,
2013-02-21 23:55:00,38.8,33.5,30.11,NW,315,2.2,-999.0,81,-99.99,,,0.00,Acu-Link.com,2013-02-22 07:55:00,